Tiempo atmosférico en la estación meteorológica de Coria, Cáceres (313 m.)



Fecha
DESCASC
Temp. máxima en grados centígrados (hora)
DESCASC
Temp. mínima en grados centígrados (hora)
DESCASC
Temp. media en grados centígrados
DESCASC
Racha de viento máxima en m/sg (hora)
DESCASC
Velocidad máxima media en intervalos de 10 minutos(hora)
DESCASC
Precipitaciones diarias en mm
DESCASC
Precipitaciones de 00:00 a 06:00 en mm
DESCASC
Precipitaciones de 06:00 a 12:00 en mm
DESCASC
Precipitaciones de 12:00 a 18:00 en mm
DESCASC
Precipitaciones de 18:00 a 24:00 en mm
DESCASC
18-08-2019 35.4 (16:50) 17.7 (08:10) 26.6 11.67 (20:50) 7.5 (20:50) 0 0 0 0 0
17-08-2019 39.4 (18:00) 20.6 (08:20) 30 8.89 (04:20) 4.44 (04:20) 0 0 0 0 0
16-08-2019 39 (19:30) 23.1 (06:10) 31.1 10.28 (00:20) 5.83 (00:30) 0 0 0 0 0
15-08-2019 38.4 (18:00) 22.2 (00:00) 30.3 10.56 (22:50) 5.83 (22:50) 0 0 0 0 0
14-08-2019 37 (17:40) 18 (00:00) 27.5 8.61 (17:40) 4.44 (05:00) 0 0 0 0 0
13-08-2019 33.4 (18:10) 16.8 (00:00) 25.1 9.72 (17:10) 3.89 (20:50) 0 0 0 0 0
12-08-2019 30.9 (19:00) 15.8 (00:00) 23.3 13.89 (16:30) 5.83 (00:30) 0 0 0 0 0
11-08-2019 28.4 (17:20) 15.6 (00:00) 22 13.06 (15:10) 6.11 (15:00) 0 0 0 0 0
10-08-2019 32.3 (18:00) 15.2 (00:00) 23.7 8.89 (14:30) 3.89 (20:00) 0 0 0 0 0
09-08-2019 25.1 (00:00) 17.9 (00:00) 21.5 13.33 (15:50) 8.33 (02:20) 1.8 0 0.6 1.2 0
08-08-2019 34.2 (16:30) 20.6 (00:00) 27.4 11.67 (18:50) 6.94 (20:20) 0 0 0 0 0
07-08-2019 28.9 (19:30) 20.6 (00:00) 24.8 7.5 (17:10) 4.72 (17:10) 0.2 0 0 0.2 0
06-08-2019 36.2 (17:30) 19 (00:00) 27.6 8.33 (01:30) 5.83 (01:30) 0 0 0 0 0
05-08-2019 36.9 (18:20) 17.1 (00:00) 27 7.22 (16:50) 3.33 (06:50) 0 0 0 0 0
04-08-2019 37.8 (17:50) 20.2 (00:00) 29 9.72 (19:30) 6.11 (19:30) 0 0 0 0 0
03-08-2019 37.6 (19:20) 19.6 (00:00) 28.6 7.5 (15:20) 4.17 (23:30) 0 0 0 0 0
02-08-2019 37.4 (19:20) 17.1 (00:00) 27.3 7.5 (02:10) 5 (02:10) 0 0 0 0 0
01-08-2019 37.1 (18:00) 19.6 (00:00) 28.3 8.61 (21:20) 5.83 (21:20) 0 0 0 0 0
31-07-2019 36.1 (17:20) 17.7 (00:00) 26.9 11.67 (11:40) 6.67 (11:40) 0 0 0 0 0
30-07-2019 33 (18:20) 15.9 (00:00) 24.4 13.33 (02:40) 6.39 (20:00) 0 0 0 0 0
29-07-2019 31.1 (17:10) 16.6 (00:00) 23.9 12.78 (16:40) 6.94 (22:20) 0 0 0 0 0
28-07-2019 33.9 (17:50) 17.9 (00:00) 25.9 8.61 (04:10) 4.44 (23:10) 0 0 0 0 0
27-07-2019 30.6 (18:50) 16.6 (00:00) 23.6 8.89 (21:20) 5.56 (18:30) 0 0 0 0 0
26-07-2019 30.7 (17:40) 18.2 (00:00) 24.5 12.5 (08:40) 7.5 (08:50) 0 0 0 0 0
25-07-2019 35.8 (17:50) 20.4 (00:00) 28.1 11.67 (20:50) 5.83 (20:50) 0 0 0 0 0
24-07-2019 39.8 (18:40) 22.2 (00:00) 31 10.56 (20:50) 6.11 (21:00) 0 0 0 0 0

Gráficas

Temp. máximas Temp. mínimas Temp. medias Precipitaciones Rachas de viento máximas Velocidades máximas media en intervalos de 10 minutos

Datos horarios

Fecha y hora oficial Temperatura (ºC) Velocidad del viento (km/h) Dirección del viento Racha (km/h) Dirección de racha Precipitación (mm) Presión (hPa) Tendencia (hPa) Humedad (%)
2019-08-22 23:00:00 30.9 9 Nordeste 15 Nordeste 0 979.8 0.5 22
2019-08-22 22:00:00 30.9 8 Nordeste 12 Este 0 979.5 0 22
2019-08-22 21:00:00 33.1 5 Nordeste 12 Este 0 979.5 -0.5 20
2019-08-22 20:00:00 34.7 9 Este 21 Este 0 979.3 -1.1 18
2019-08-22 19:00:00 35.6 12 Este 24 Este 0 979.5 -1.5 18
2019-08-22 18:00:00 36.1 9 Este 29 Sudeste 0 980 -1.5 17
2019-08-22 17:00:00 35.9 13 Este 30 Este 0 980.4 -1.7 17
2019-08-22 16:00:00 35.2 13 Este 27 Sudeste 0 981 -1.7 17
2019-08-22 15:00:00 34.2 11 Este 32 Este 0 981.5 -1.4 22
2019-08-22 14:00:00 32.7 20 Este 35 Este 0 982.1 -0.6 26
2019-08-22 13:00:00 31.3 22 Este 36 Este 0 982.7 0 30
2019-08-22 12:00:00 29.4 23 Este 40 Este 0 982.9 0.4 35
2019-08-22 11:00:00 27.3 28 Este 44 Este 0 982.7 0.8 40
2019-08-22 10:00:00 25.5 27 Este 41 Este 0 982.7 1.1 45
2019-08-22 09:00:00 23.9 20 Este 35 Este 0 982.5 1.1 55
2019-08-22 08:00:00 22.8 18 Este 30 Este 0 981.9 0.3 60
2019-08-22 07:00:00 23.3 15 Este 33 Este 0 981.6 0.2 59
2019-08-22 06:00:00 23.6 17 Este 30 Este 0 981.4 -0.1 58
2019-08-22 05:00:00 23.8 14 Este 32 Este 0 981.6 0.5 58
2019-08-22 04:00:00 24 17 Este 28 Este 0 981.4 0.4 57
2019-08-22 03:00:00 24.7 18 Este 32 Este 0 981.5 1 45
2019-08-22 02:00:00 25.9 3 Nordeste 13 Nordeste 0 981.1 1 32
2019-08-22 01:00:00 26.7 9 Este 15 Este 0 981 1.6 28
2019-08-22 00:00:00 26.9 9 Este 19 Este 0 980.5 1.2 30
2019-08-21 23:00:00 29.3 9 Norte 13 Norte 0 980.1 1 28
2019-08-21 22:00:00 29.9 4 Norte 7 Noroeste 0 979.4 0.3 26
2019-08-21 21:00:00 31.7 0 Calma 9 Sudeste 0 979.3 0.1 21
2019-08-21 20:00:00 34.3 5 Oeste 16 Norte 0 979.1 -0.5 19
2019-08-21 19:00:00 34.3 8 Noroeste 21 Noroeste 0 979.1 -1.1 22
2019-08-21 18:00:00 34.9 7 Sur 18 Sur 0 979.2 -1.7 16
2019-08-21 17:00:00 34.5 9 Sudeste 16 Este 0 979.6 -1.7 23
2019-08-21 16:00:00 34 8 Sur 23 Sudeste 0 980.2 -1.3 26
2019-08-21 15:00:00 32.3 9 Este 27 Este 0 980.9 -1 31
2019-08-21 14:00:00 31 15 Este 32 Este 0 981.3 -0.5 34
2019-08-21 13:00:00 29.6 19 Este 34 Este 0 981.5 -0.3 40
2019-08-21 12:00:00 27.7 14 Este 28 Este 0 981.9 0.4 45
2019-08-21 11:00:00 26.4 14 Este 33 Este 0 981.8 0.6 46
2019-08-21 10:00:00 25.8 13 Este 27 Nordeste 0 981.8 1.3 44
2019-08-21 09:00:00 23.5 12 Nordeste 27 Nordeste 0 981.5 1.2 48
2019-08-21 08:00:00 22.6 9 Este 25 Nordeste 0 981.2 1.2 46
2019-08-21 07:00:00 23.3 18 Este 33 Este 0 980.5 0.6 47
2019-08-21 06:00:00 23.6 13 Este 27 Nordeste 0 980.3 0.2 43
2019-08-21 05:00:00 23.7 12 Este 28 Nordeste 0 980 0 39
2019-08-21 04:00:00 23.3 9 Este 21 Nordeste 0 979.9 0 38
2019-08-21 03:00:00 24.8 3 Sudoeste 26 Nordeste 0 980.1 0.3 32
2019-08-21 02:00:00 23.6 5 Nordeste 18 Nordeste 0 980 0.6 33
2019-08-21 01:00:00 25.4 5 Norte 16 Nordeste 0 979.9 0.9 27
2019-08-21 00:00:00 25.9 6 Norte 22 Norte 0 979.8 1.1 26
2019-08-20 23:00:00 27.6 10 Norte 21 Norte 0 979.4 0.9 23
2019-08-20 22:00:00 28.7 10 Norte 21 Norte 0 979 0.5 22
2019-08-20 21:00:00 31.9 3 Oeste 16 Sudeste 0 978.7 0 18
2019-08-20 20:00:00 33.3 11 Sudeste 20 Sudeste 0 978.5 -0.7 13
2019-08-20 19:00:00 34 14 Sudeste 32 Sudeste 0 978.5 -1.3 14
2019-08-20 18:00:00 34.4 13 Este 30 Sudeste 0 978.7 -1.4 14
2019-08-20 17:00:00 34.3 15 Sudeste 29 Sudeste 0 979.2 -1.4 16
2019-08-20 16:00:00 33.3 14 Este 36 Sudeste 0 979.8 -1.1 19
2019-08-20 15:00:00 32.6 17 Este 30 Este 0 980.1 -0.8 20
2019-08-20 14:00:00 31.3 8 Nordeste 35 Este 0 980.6 -0.2 23
2019-08-20 13:00:00 30.2 10 Nordeste 36 Nordeste 0 980.9 0.4 25
2019-08-20 12:00:00 28.8 12 Este 28 Nordeste 0 980.9 0.9 28
2019-08-20 11:00:00 25.2 4 Norte 22 Noroeste 0 980.8 1.5 38
2019-08-20 10:00:00 22.2 10 Norte 24 Norte 0 980.5 1.5 46
2019-08-20 09:00:00 20 12 Norte 23 Norte 0 980 1.4 54
2019-08-20 08:00:00 18.1 12 Norte 21 Noroeste 0 979.3 1.1 61
2019-08-20 07:00:00 18.2 14 Noroeste 23 Norte 0 979 1 62
2019-08-20 06:00:00 18.9 13 Noroeste 22 Noroeste 0 978.6 0.5 60
2019-08-20 05:00:00 19.4 14 Noroeste 21 Noroeste 0 978.2 -0.3 58
2019-08-20 04:00:00 20.1 11 Norte 21 Norte 0 978 -0.7 55
2019-08-20 03:00:00 21.4 11 Norte 23 Norte 0 978.1 -0.1 50
2019-08-20 02:00:00 22.5 14 Noroeste 27 Noroeste 0 978.5 0.5 49
2019-08-20 01:00:00 23.8 15 Noroeste 26 Noroeste 0 978.7 1 42
2019-08-20 00:00:00 24.7 9 Noroeste 15 Noroeste 0 978.2 1.1 35
2019-08-19 23:00:00 25.6 5 Sudoeste 22 Oeste 0 978 1.1 33
2019-08-19 22:00:00 26.8 13 Oeste 28 Oeste 0 977.7 0.4 29
2019-08-19 21:00:00 28.8 8 Norte 25 Noroeste 0 977.1 -0.2 24
2019-08-19 20:00:00 29.9 13 Noroeste 26 Noroeste 0 976.9 -0.7 22
2019-08-19 19:00:00 30.7 10 Oeste 28 Oeste 0 977.3 -0.8 16
2019-08-19 18:00:00 31.3 10 Oeste 21 Oeste 0 977.3 -1.3 17
2019-08-19 17:00:00 32.6 3 Sur 18 Oeste 0 977.6 -1.5 19
2019-08-19 16:00:00 31.1 6 Sudoeste 17 Sudoeste 0 978.1 -1.1 23
2019-08-19 15:00:00 30.7 9 Sur 22 Sur 0 978.6 -0.5 28
2019-08-19 14:00:00 29.1 6 Oeste 20 Oeste 0 979.1 0 30
2019-08-19 13:00:00 28 8 Oeste 22 Oeste 0 979.2 0.6 37
2019-08-19 12:00:00 26.1 7 Noroeste 19 Oeste 0 979.1 0.6 43
2019-08-19 11:00:00 24.2 8 Noroeste 20 Noroeste 0 979.1 0.7 48
2019-08-19 10:00:00 21.6 10 Noroeste 23 Noroeste 0 978.6 0.4 56
2019-08-19 09:00:00 20.2 7 Noroeste 21 Noroeste 0 978.5 0.2 63
2019-08-19 08:00:00 17.9 5 Sudoeste 19 Noroeste 0 978.4 0.1 72
2019-08-19 07:00:00 18.5 10 Norte 24 Norte 0 978.2 -0.1 71
2019-08-19 06:00:00 18.2 6 Noroeste 14 Noroeste 0 978.3 -0.2 71
2019-08-19 05:00:00 19.1 5 Oeste 24 Noroeste 0 978.3 -0.5 67
2019-08-19 04:00:00 20.2 15 Noroeste 24 Noroeste 0 978.3 -0.6 65
2019-08-19 03:00:00 21 6 Noroeste 26 Noroeste 0 978.5 -0.1 64
2019-08-19 02:00:00 22.2 9 Noroeste 20 Noroeste 0 978.8 0.7 63
2019-08-19 01:00:00 22.7 5 Oeste 17 Oeste 0 978.9 1.9 58
2019-08-19 00:00:00 24.4 6 Oeste 25 Oeste 0 978.6 2.1 52
2019-08-18 23:00:00 25.6 9 Oeste 26 Noroeste 0 978.1 2.1 50
2019-08-18 22:00:00 27.4 8 Oeste 27 Oeste 0 977 1.1 44
2019-08-18 21:00:00 29.4 22 Oeste 42 Oeste 0 976.5 0.3 33
2019-08-18 20:00:00 32 16 Oeste 38 Noroeste 0 976 -0.6 32
2019-08-18 19:00:00 33.5 15 Oeste 39 Oeste 0 975.9 -1.2 27
2019-08-18 18:00:00 35 10 Oeste 39 Oeste 0 976.2 -1.2 20
2019-08-18 17:00:00 34.6 10 Sudoeste 34 Oeste 0 976.6 -1.3 19
2019-08-18 16:00:00 34.1 7 Oeste 34 Sudoeste 0 977.1 -1.2 18
2019-08-18 15:00:00 31.8 11 Oeste 22 Oeste 0 977.4 -0.9 22
2019-08-18 14:00:00 30.9 8 Oeste 20 Oeste 0 977.9 -0.1 23
2019-08-18 13:00:00 29.3 7 Oeste 20 Oeste 0 978.3 0.5 28
2019-08-18 12:00:00 27.1 6 Oeste 19 Noroeste 0 978.3 1.1 33
2019-08-18 11:00:00 25.2 10 Oeste 15 Oeste 0 978 1.2 40
2019-08-18 10:00:00 23.1 8 Oeste 13 Oeste 0 977.8 1.5 50
2019-08-18 09:00:00 20.2 6 Oeste 21 Noroeste 0 977.2 1.2 58
2019-08-18 08:00:00 18 5 Oeste 15 Noroeste 0 976.8 0.9 64
2019-08-18 07:00:00 18.1 7 Noroeste 25 Noroeste 0 976.3 0.1 66
2019-08-18 06:00:00 20 15 Noroeste 24 Noroeste 0 976 -0.4 58
2019-08-18 05:00:00 21.4 11 Noroeste 17 Norte 0 975.9 -0.5 50
2019-08-18 04:00:00 21.9 6 Noroeste 13 Noroeste 0 976.2 -0.2 55
2019-08-18 03:00:00 23.2 4 Oeste 9 Oeste 0 976.4 0.1 46
2019-08-18 02:00:00 24.7 5 Noroeste 12 Noroeste 0 976.4 0.4 39
2019-08-18 01:00:00 26.2 6 Noroeste 16 Noroeste 0 976.4 1.2 34
2019-08-18 00:00:00 27.7 8 Noroeste 26 Noroeste 0 976.3 1.4 33
2019-08-17 23:00:00 29.5 11 Oeste 22 Oeste 0 976 1.1 25
2019-08-17 22:00:00 31.6 6 Oeste 14 Oeste 0 975.2 -0.2 14
2019-08-17 21:00:00 34.5 10 Oeste 19 Oeste 0 974.9 -1 15
2019-08-17 20:00:00 38.2 7 Oeste 23 Sudoeste 0 974.9 -1.5 11
2019-08-17 19:00:00 38.6 7 Sur 20 Sudoeste 0 975.4 -1.6 11
2019-08-17 18:00:00 39.4 10 Sudoeste 27 Sudoeste 0 975.9 -1.7 10
2019-08-17 17:00:00 38.6 7 Sudoeste 27 Oeste 0 976.4 -2.1 12
2019-08-17 16:00:00 37.4 8 Sudoeste 26 Oeste 0 977 -2 13
2019-08-17 15:00:00 36.2 5 Sudoeste 16 Sur 0 977.6 -1.8 19
2019-08-17 14:00:00 34.7 6 Sudoeste 15 Sur 0 978.5 -0.9 21
2019-08-17 13:00:00 33.2 5 Sur 21 Sudeste 0 979 -0.4 23
2019-08-17 12:00:00 31.1 6 Sur 14 Sudeste 0 979.4 0.3 26
2019-08-17 11:00:00 28.6 3 Sur 11 Oeste 0 979.4 0.5 31
2019-08-17 10:00:00 25.2 5 Oeste 13 Oeste 0 979.4 0.9 36
2019-08-17 09:00:00 22.2 7 Noroeste 12 Oeste 0 979.1 0.7 43
2019-08-17 08:00:00 20.8 6 Noroeste 18 Noroeste 0 978.9 0.4 47
2019-08-17 07:00:00 21.8 10 Noroeste 18 Norte 0 978.5 -0.2 46
2019-08-17 06:00:00 22.1 7 Oeste 24 Norte 0 978.4 -0.4 43
2019-08-17 05:00:00 24.8 12 Norte 32 Norte 0 978.5 -0.6 37
2019-08-17 04:00:00 24.2 10 Norte 24 Norte 0 978.7 -0.3 38
2019-08-17 03:00:00 24.9 13 Norte 23 Noroeste 0 978.8 0.2 36
2019-08-17 02:00:00 25.4 8 Noroeste 13 Noroeste 0 979.1 0.5 36
2019-08-17 01:00:00 26.2 3 Oeste 24 Noroeste 0 979 1.5 36
2019-08-17 00:00:00 28.1 14 Noroeste 31 Noroeste 0 978.6 1.6 32
2019-08-16 23:00:00 30 11 Noroeste 31 Noroeste 0 978.6 1.8 32
2019-08-16 22:00:00 32.2 12 Noroeste 28 Norte 0 977.5 0.4 24
2019-08-16 21:00:00 35.5 12 Norte 31 Oeste 0 977 -0.6 15
2019-08-16 20:00:00 38.5 11 Sudoeste 21 Oeste 0 976.8 -1.4 13
2019-08-16 19:00:00 38.4 9 Sur 20 Sudoeste 0 977.1 -1.6 14
2019-08-16 18:00:00 38.7 8 Sur 17 Sur 0 977.6 -1.8 15
2019-08-16 17:00:00 37.7 6 Oeste 22 Oeste 0 978.2 -1.7 16
2019-08-16 16:00:00 37.7 10 Sur 23 Sudoeste 0 978.7 -1.8 15
2019-08-16 15:00:00 36.4 8 Sur 24 Sudoeste 0 979.4 -1.3 19
2019-08-16 14:00:00 34.5 8 Sudoeste 17 Sudoeste 0 979.9 -0.8 22
2019-08-16 13:00:00 32.8 8 Sudoeste 16 Sudoeste 0 980.5 -0.2 29
2019-08-16 12:00:00 31.5 5 Sur 20 Este 0 980.7 0.2 30
2019-08-16 11:00:00 29.4 4 Este 9 Nordeste 0 980.7 0.5 33
2019-08-16 10:00:00 27.7 4 Sur 8 Sudeste 0 980.7 0.7 41
2019-08-16 09:00:00 25.1 2 Sudoeste 23 Norte 0 980.5 0.8 50
2019-08-16 08:00:00 23.9 12 Norte 26 Norte 0 980.2 0.4 53
2019-08-16 07:00:00 24.5 9 Norte 27 Norte 0 980 0.1 50
2019-08-16 06:00:00 23.3 5 Oeste 20 Norte 0 979.7 -0.4 54
2019-08-16 05:00:00 24.6 8 Norte 22 Norte 0 979.8 -0.6 51
2019-08-16 04:00:00 24.7 13 Noroeste 20 Norte 0 979.9 -0.1 50
2019-08-16 03:00:00 25.7 10 Noroeste 15 Noroeste 0 980.1 0.3 46
2019-08-16 02:00:00 26.3 3 Este 17 Norte 0 980.4 0.7 46
2019-08-16 01:00:00 28.4 14 Norte 37 Norte 0 980 1 38
2019-08-16 00:00:00 29.3 17 Norte 38 Norte 0 979.8 1.1 36
2019-08-15 23:00:00 30.8 19 Norte 38 Norte 0 979.7 1.2 32
2019-08-15 22:00:00 32.2 10 Norte 23 Noroeste 0 979 0.3 21
2019-08-15 21:00:00 34.8 14 Noroeste 27 Noroeste 0 978.7 -0.1 18
2019-08-15 20:00:00 37.5 11 Noroeste 26 Noroeste 0 978.5 -0.8 13
2019-08-15 19:00:00 37.9 12 Noroeste 27 Oeste 0 978.7 -1.3 13
2019-08-15 18:00:00 38.2 11 Noroeste 33 Sudoeste 0 978.8 -1.6 12
2019-08-15 17:00:00 37.6 12 Oeste 30 Noroeste 0 979.3 -1.5 13
2019-08-15 16:00:00 36.7 14 Noroeste 35 Oeste 0 980 -1.3 15
2019-08-15 15:00:00 36.3 14 Oeste 31 Oeste 0 980.4 -1.3 18
2019-08-15 14:00:00 35.1 9 Oeste 37 Oeste 0 980.8 -1.2 19
2019-08-15 13:00:00 33.9 13 Noroeste 31 Noroeste 0 981.3 -0.7 22
2019-08-15 12:00:00 32 12 Noroeste 28 Noroeste 0 981.7 -0.2 28
2019-08-15 11:00:00 28.8 10 Noroeste 21 Noroeste 0 982 0.2 35
2019-08-15 10:00:00 26.3 10 Noroeste 23 Noroeste 0 982 0.5 43
2019-08-15 09:00:00 24.2 14 Noroeste 26 Norte 0 981.9 0.5 48
2019-08-15 08:00:00 23.4 16 Norte 32 Norte 0 981.8 0.5 50
2019-08-15 07:00:00 23.6 14 Norte 28 Norte 0 981.5 0.3 53
2019-08-15 06:00:00 22.4 0 Calma 8 Noroeste 0 981.4 0.2 61
2019-08-15 05:00:00 23.4 4 Noroeste 8 Noroeste 0 981.3 -0.1 59
2019-08-15 04:00:00 24.6 4 Noroeste 8 Noroeste 0 981.2 -0.2 55
2019-08-15 03:00:00 25.5 2 Norte 8 Norte 0 981.2 -0.1 51
2019-08-15 02:00:00 26.9 3 Sudoeste 21 Norte 0 981.4 0.5 47
2019-08-15 01:00:00 28.1 7 Norte 26 Noroeste 0 981.4 1.2 43
2019-08-15 00:00:00 28.8 13 Norte 27 Norte 0 981.3 1.5 39
2019-08-14 23:00:00 30.1 13 Norte 28 Noroeste 0 980.9 1.4 33
2019-08-14 22:00:00 31.7 7 Norte 15 Noroeste 0 980.2 0.4 23
2019-08-14 21:00:00 34.4 9 Noroeste 23 Noroeste 0 979.8 -0.3 18
2019-08-14 20:00:00 35.9 11 Noroeste 22 Noroeste 0 979.5 -1.2 15
2019-08-14 19:00:00 36.5 10 Oeste 29 Oeste 0 979.8 -1.5 14
2019-08-14 18:00:00 36.4 12 Oeste 31 Oeste 0 980.1 -1.9 13
2019-08-14 17:00:00 35.7 9 Oeste 26 Oeste 0 980.7 -1.8 13
2019-08-14 16:00:00 34.8 6 Oeste 28 Oeste 0 981.3 -1.8 14
2019-08-14 15:00:00 34.4 10 Sur 25 Sudoeste 0 982 -1.3 14
2019-08-14 14:00:00 33.3 8 Sur 19 Sudoeste 0 982.5 -0.8 14
2019-08-14 13:00:00 31.5 6 Sudoeste 14 Sur 0 983.1 -0.1 18
2019-08-14 12:00:00 28.8 6 Sudoeste 11 Sudoeste 0 983.3 0.2 22
2019-08-14 11:00:00 26 5 Sur 12 Sudoeste 0 983.3 0.7 26
2019-08-14 10:00:00 22.9 3 Sur 11 Sudeste 0 983.2 0.9 30
2019-08-14 09:00:00 20 3 Oeste 6 Oeste 0 983.1 1.1 39
2019-08-14 08:00:00 18.1 4 Este 12 Este 0 982.6 0.6 37
2019-08-14 07:00:00 19.6 9 Este 13 Este 0 982.3 0.3 36
2019-08-14 06:00:00 20.5 2 Este 26 Norte 0 982 0 34
2019-08-14 05:00:00 21.7 16 Norte 26 Norte 0 982 0 31
2019-08-14 04:00:00 22.6 14 Norte 28 Norte 0 982 0.1 27
2019-08-14 03:00:00 24 13 Norte 25 Norte 0 982 0.5 23
2019-08-14 02:00:00 24.5 11 Norte 25 Norte 0 982 0.8 21
2019-08-14 01:00:00 24.9 10 Norte 24 Norte 0 981.9 1.4 20
2019-08-14 00:00:00 25.9 12 Norte 24 Norte 0 981.5 1.3 18
2019-08-13 23:00:00 26.8 12 Norte 26 Norte 0 981.2 1.2 18
2019-08-13 22:00:00 28.5 9 Norte 22 Norte 0 980.5 0.5 16
2019-08-13 21:00:00 30.7 13 Noroeste 24 Norte 0 980.2 -0.2 14
2019-08-13 20:00:00 32.6 12 Noroeste 27 Oeste 0 980 -0.8 12
2019-08-13 19:00:00 33 9 Noroeste 28 Noroeste 0 980 -1.5 13
2019-08-13 18:00:00 33.2 9 Noroeste 35 Oeste 0 980.4 -1.7 12
2019-08-13 17:00:00 32.7 5 Sudoeste 25 Sudoeste 0 980.8 -1.8 13
2019-08-13 16:00:00 32.5 8 Sudoeste 26 Sudeste 0 981.5 -1.5 15
2019-08-13 15:00:00 31.2 8 Sudoeste 22 Sudeste 0 982.1 -1.1 19
2019-08-13 14:00:00 30 9 Sudeste 25 Este 0 982.6 -0.5 19
2019-08-13 13:00:00 28.6 13 Este 25 Sudeste 0 983 0 22
2019-08-13 12:00:00 26.8 8 Sudeste 16 Este 0 983.2 0.4 26
2019-08-13 11:00:00 24.2 6 Este 12 Sudeste 0 983.1 0.8 31
2019-08-13 10:00:00 21.3 3 Sur 8 Sudoeste 0 983 1.2 36
2019-08-13 09:00:00 18.5 3 Sur 9 Nordeste 0 982.8 1.1 39
2019-08-13 08:00:00 16.8 5 Nordeste 23 Norte 0 982.3 0.6 41
2019-08-13 07:00:00 17.6 8 Norte 23 Norte 0 981.8 0.2 35
2019-08-13 06:00:00 18.7 9 Norte 17 Norte 0 981.7 -0.1 31
2019-08-13 05:00:00 18.7 10 Norte 22 Norte 0 981.7 -0.5 31
2019-08-13 04:00:00 18.8 11 Norte 18 Noroeste 0 981.6 -0.7 31
2019-08-13 03:00:00 21 9 Norte 20 Norte 0 981.8 -0.3 25
2019-08-13 02:00:00 21.5 12 Norte 21 Norte 0 982.2 0.5 24
2019-08-13 01:00:00 21.8 13 Norte 22 Norte 0 982.3 1 24
2019-08-13 00:00:00 23 11 Norte 20 Norte 0 982.1 1.1 22
2019-08-12 23:00:00 24.2 10 Norte 21 Norte 0 981.7 1.3 20
2019-08-12 22:00:00 25.2 6 Norte 24 Norte 0 981.3 0.9 18
2019-08-12 21:00:00 26.7 11 Norte 28 Nordeste 0 981 0.4 16
2019-08-12 20:00:00 27.8 13 Norte 30 Norte 0 980.4 -0.6 16
2019-08-12 19:00:00 30.8 5 Sudoeste 24 Oeste 0 980.4 -1.1 13
2019-08-12 18:00:00 30.2 6 Sudeste 20 Sudeste 0 980.6 -1.5 14
2019-08-12 17:00:00 30.6 5 Sur 50 Este 0 981 -1.9 14
2019-08-12 16:00:00 29.2 8 Este 27 Norte 0 981.5 -1.9 17
2019-08-12 15:00:00 28 10 Norte 27 Norte 0 982.1 -1.7 19
2019-08-12 14:00:00 27.2 10 Nordeste 40 Este 0 982.9 -0.7 23
2019-08-12 13:00:00 25.4 9 Nordeste 22 Norte 0 983.4 0.1 27
2019-08-12 12:00:00 23.3 7 Norte 28 Nordeste 0 983.8 0.9 32
2019-08-12 11:00:00 21.8 10 Norte 27 Nordeste 0 983.6 0.8 35
2019-08-12 10:00:00 19.1 9 Norte 33 Nordeste 0 983.3 0.9 43
2019-08-12 09:00:00 17.1 14 Norte 35 Norte 0 982.9 0.5 50
2019-08-12 08:00:00 15.9 16 Norte 39 Norte 0 982.8 0.3 55
2019-08-12 07:00:00 16.7 16 Norte 41 Norte 0 982.4 -0.3 50
2019-08-12 06:00:00 16.9 14 Norte 35 Norte 0 982.4 -0.7 50
2019-08-12 05:00:00 16.8 12 Norte 25 Norte 0 982.5 -0.8 54
2019-08-12 04:00:00 16.7 8 Norte 18 Norte 0 982.7 -0.3 55
2019-08-12 03:00:00 17.4 6 Norte 29 Norte 0 983.1 0.2 52
2019-08-12 02:00:00 18.3 9 Norte 34 Noroeste 0 983.3 0.7 50
2019-08-12 01:00:00 18.9 19 Norte 40 Noroeste 0 983 1.2 47
2019-08-12 00:00:00 19.6 18 Noroeste 37 Noroeste 0 982.9 1.6 45
2019-08-11 23:00:00 21 17 Noroeste 30 Noroeste 0 982.6 1.8 36
2019-08-11 22:00:00 22 15 Noroeste 28 Noroeste 0 981.8 1 32
2019-08-11 21:00:00 24.7 17 Noroeste 35 Oeste 0 981.3 0.6 26
2019-08-11 20:00:00 26.5 21 Noroeste 37 Noroeste 0 980.8 -0.1 22
2019-08-11 19:00:00 27.5 18 Noroeste 39 Noroeste 0 980.8 -0.5 21
2019-08-11 18:00:00 28 18 Noroeste 38 Noroeste 0 980.7 -1.2 20
2019-08-11 17:00:00 27.8 17 Noroeste 36 Noroeste 0 980.9 -1.2 20
2019-08-11 16:00:00 26.6 15 Oeste 47 Norte 0 981.3 -1.3 26
2019-08-11 15:00:00 25.8 22 Noroeste 40 Norte 0 981.9 -0.3 26
2019-08-11 14:00:00 24.4 14 Oeste 33 Norte 0 982.1 0.3 27
2019-08-11 13:00:00 23.9 14 Noroeste 36 Noroeste 0 982.6 0.9 30
2019-08-11 12:00:00 22.6 19 Noroeste 36 Oeste 0 982.2 0.8 45
2019-08-11 11:00:00 21.6 10 Noroeste 27 Noroeste 0 981.8 1.1 50
2019-08-11 10:00:00 19.9 7 Noroeste 27 Noroeste 0 981.7 1.5 56
2019-08-11 09:00:00 17.8 11 Noroeste 20 Noroeste 0 981.4 1.6 63
2019-08-11 08:00:00 16 8 Noroeste 20 Noroeste 0 980.7 0.9 71
2019-08-11 07:00:00 16.3 7 Oeste 19 Oeste 0 980.2 1.4 72
2019-08-11 06:00:00 17.7 13 Oeste 27 Oeste 0 979.8 -1 65
2019-08-11 05:00:00 19.8 8 Noroeste 35 Nordeste 0 979.8 -1.1 55
2019-08-11 04:00:00 21.6 18 Norte 37 Nordeste 0 978.8 -1.4 49
2019-08-11 03:00:00 21.1 18 Noroeste 39 Noroeste 0 980.8 0.8 50
2019-08-11 02:00:00 21.7 19 Noroeste 35 Noroeste 0 980.9 0.7 51
2019-08-11 01:00:00 22.4 19 Noroeste 37 Oeste 0 980.2 0.7 51
2019-08-11 00:00:00 23.6 11 Noroeste 29 Noroeste 0 980 0.6 44
2019-08-10 23:00:00 25.1 6 Noroeste 26 Noroeste 0 980.2 0.7 37
2019-08-10 22:00:00 25.9 6 Oeste 18 Oeste 0 979.5 -0.3 31
2019-08-10 21:00:00 28.5 10 Oeste 21 Oeste 0 979.4 -0.7 27
2019-08-10 20:00:00 30.6 14 Sudoeste 22 Sudoeste 0 979.5 -1.3 23
2019-08-10 19:00:00 31.7 10 Oeste 24 Sudoeste 0 979.8 -1.8 20
2019-08-10 18:00:00 32.3 10 Sudoeste 24 Sudoeste 0 980.1 -2.2 22
2019-08-10 17:00:00 31.1 12 Sudoeste 22 Oeste 0 980.8 -2 23
2019-08-10 16:00:00 29.1 6 Sudoeste 22 Oeste 0 981.6 -1.7 28
2019-08-10 15:00:00 28.5 9 Sur 32 Sudoeste 0 982.3 -1.1 31
2019-08-10 14:00:00 26.7 7 Nordeste 25 Oeste 0 982.8 -0.7 33
2019-08-10 13:00:00 25.2 8 Oeste 21 Oeste 0 983.3 -0.4 47
2019-08-10 12:00:00 24.3 6 Sudeste 14 Sudeste 0 983.4 0.3 51
2019-08-10 11:00:00 22.2 4 Sudeste 10 Sudeste 0 983.5 0.4 61
2019-08-10 10:00:00 19.9 4 Sudeste 16 Norte 0 983.7 1 73
2019-08-10 09:00:00 17.1 9 Noroeste 24 Noroeste 0 983.1 0.7 80
2019-08-10 08:00:00 15.4 9 Noroeste 14 Noroeste 0 983.1 0.6 85
2019-08-10 07:00:00 15.6 5 Noroeste 11 Noroeste 0 982.7 0.1 81
2019-08-10 06:00:00 15.8 6 Noroeste 10 Noroeste 0 982.4 0 82
2019-08-10 05:00:00 16.6 9 Noroeste 18 Noroeste 0 982.5 -0.1 81
2019-08-10 04:00:00 16 6 Noroeste 15 Noroeste 0 982.6 0 90
2019-08-10 03:00:00 17.1 10 Norte 19 Noroeste 0 982.4 -0.1 89
2019-08-10 02:00:00 17.1 5 Noroeste 11 Noroeste 0 982.6 0.5 92
2019-08-10 01:00:00 17.8 3 Norte 10 Este 0 982.6 1.1 88
2019-08-10 00:00:00 18.3 6 Nordeste 14 Este 0 982.5 1.1 87
2019-08-09 23:00:00 18.6 9 Este 14 Este 0 982.1 0.8 83
2019-08-09 22:00:00 20 5 Este 10 Este 0 981.5 0.2 72
2019-08-09 21:00:00 22.4 4 Este 9 Sudoeste 0 981.4 -0.3 63
2019-08-09 20:00:00 23 4 Noroeste 11 Sudoeste 0 981.3 -0.7 57
2019-08-09 19:00:00 22.4 3 Sudeste 14 Oeste 0 981.3 -0.7 64
2019-08-09 18:00:00 20.3 6 Sudoeste 13 Oeste 0.4 981.7 0.4 78
2019-08-09 17:00:00 17.9 8 Noroeste 36 Noroeste 0.8 982 0.9 90
2019-08-09 16:00:00 21.1 19 Oeste 48 Oeste 0 982 1.3 61
2019-08-09 15:00:00 23 17 Oeste 34 Oeste 0 981.3 0.8 70
2019-08-09 14:00:00 22.3 20 Oeste 33 Oeste 0 981.1 1.3 80
2019-08-09 13:00:00 22.5 11 Oeste 27 Oeste 0 980.7 1.6 84
2019-08-09 12:00:00 21.4 14 Oeste 42 Noroeste 0 980.5 1.5 91
2019-08-09 11:00:00 23.2 12 Sudoeste 23 Sudoeste 0 979.8 1 86
2019-08-09 10:00:00 22 6 Sudeste 11 Sudeste 0.2 979.1 0.7 92
2019-08-09 09:00:00 21.1 4 Sur -- -- 0.4 979 0.6 92
2019-08-09 08:00:00 22 13 Sur 20 Sudeste 0 978.8 0.3 78
2019-08-09 07:00:00 22.7 8 Sur 17 Sur 0 978.4 -0.1 75
2019-08-09 06:00:00 22.6 4 Sudoeste 14 Sudoeste 0 978.4 -0.1 75
2019-08-09 05:00:00 22.4 9 Sudoeste 24 Oeste 0 978.5 0 75
2019-08-09 04:00:00 22 17 Oeste 28 Oeste 0 978.5 0.4 76
2019-08-09 03:00:00 22.1 19 Oeste 44 Oeste 0 978.5 0.5 74
2019-08-09 02:00:00 23.1 25 Oeste 40 Sudoeste 0 978.5 0.9 69
2019-08-09 01:00:00 24.1 17 Oeste 26 Oeste 0 978.1 1.4 63
2019-08-09 00:00:00 25.1 13 Oeste 27 Oeste 0 978 1.7 58
2019-08-08 23:00:00 26.8 15 Oeste 28 Oeste 0 977.6 1.6 50
2019-08-08 22:00:00 28 17 Oeste 34 Oeste 0 976.7 0.7 44
2019-08-08 21:00:00 30.1 18 Oeste 39 Oeste 0 976.3 0 40
2019-08-08 20:00:00 32.1 24 Oeste 38 Oeste 0 976 -0.5 33
2019-08-08 19:00:00 32.9 18 Oeste 42 Oeste 0 976 -1 33
2019-08-08 18:00:00 33 20 Oeste 39 Oeste 0 976.3 -1.3 34
2019-08-08 17:00:00 33.6 14 Sudoeste 35 Oeste 0 976.5 -1.7 33
2019-08-08 16:00:00 33.6 17 Sudoeste 37 Oeste 0 977 -1.6 32
2019-08-08 15:00:00 32.5 13 Sudoeste 41 Sur 0 977.6 -1.1 32
2019-08-08 14:00:00 31.2 13 Sudoeste 26 Sudoeste 0 978.2 -0.5 39
2019-08-08 13:00:00 28.4 5 Sudoeste 22 Sur 0 978.6 -0.3 50
2019-08-08 12:00:00 27.2 5 Sudoeste 14 Sudoeste 0 978.7 0.1 56
2019-08-08 11:00:00 25.6 4 Sudeste 12 Sur 0 978.7 0.3 60
2019-08-08 10:00:00 23.3 4 Sudeste 10 Sudeste 0 978.9 0.7 62
2019-08-08 09:00:00 21.7 4 Sudeste 9 Este 0 978.6 0.4 63
2019-08-08 08:00:00 20.9 4 Este 8 Este 0 978.4 0.1 65
2019-08-08 07:00:00 21 0 Calma 5 Este 0 978.2 -0.4 63
2019-08-08 06:00:00 20.6 4 Este 6 Este 0 978.2 -0.7 65
2019-08-08 05:00:00 21.3 4 Sudeste 7 Sur 0 978.3 -0.3 62
2019-08-08 04:00:00 21.5 3 Sur 7 Sudoeste 0 978.6 0.1 60
2019-08-08 03:00:00 21.9 3 Sudeste 4 Este 0 978.9 0.2 57
2019-08-08 02:00:00 23.1 3 Este 4 Sur 0 978.6 0.1 51
2019-08-08 01:00:00 24.1 3 Sudoeste 5 Sur 0 978.5 0.7 48
2019-08-08 00:00:00 23.7 0 Calma 8 Oeste 0 978.7 1.1 48
2019-08-07 23:00:00 24.2 4 Noroeste 12 Oeste 0 978.5 1.1 43
2019-08-07 22:00:00 24.9 6 Oeste 14 Oeste 0 977.8 -0.1 45
2019-08-07 21:00:00 26.7 10 Oeste 18 Oeste 0 977.6 -0.6 42
2019-08-07 20:00:00 28.4 8 Sudoeste 15 Oeste 0 977.4 -1.1 39
2019-08-07 19:00:00 27.7 8 Oeste 20 Oeste 0 977.9 -0.8 40
2019-08-07 18:00:00 26.4 10 Oeste 27 Oeste 0 978.2 -0.3 48
2019-08-07 17:00:00 27 12 Sudoeste 26 Oeste 0 978.5 -0.5 45
2019-08-07 16:00:00 24.7 4 Sur 17 Sur 0 978.7 -0.5 57
2019-08-07 15:00:00 23.8 4 Sudeste 14 Sudoeste 0 978.5 -0.2 62
2019-08-07 14:00:00 22.7 7 Sudoeste 18 Sudoeste 0.2 979 1 72
2019-08-07 13:00:00 22.1 7 Sudoeste 18 Sudoeste 0 979.2 1.8 74
2019-08-07 12:00:00 23 10 Sudoeste 19 Sudoeste 0 978.7 2 64
2019-08-07 11:00:00 22.4 9 Sudoeste 17 Sudoeste 0 978 1.9 66
2019-08-07 10:00:00 21.6 8 Sudoeste 15 Sudoeste 0 977.4 1.8 69
2019-08-07 09:00:00 20.9 8 Oeste 14 Oeste 0 976.7 1.2 72
2019-08-07 08:00:00 20.7 8 Oeste 20 Oeste 0 976.1 0.9 71
2019-08-07 07:00:00 20.9 6 Oeste 12 Sudoeste 0 975.6 0.4 69
2019-08-07 06:00:00 21.4 8 Sudoeste 14 Oeste 0 975.5 0 67
2019-08-07 05:00:00 21.8 7 Oeste 13 Sudoeste 0 975.2 -0.5 64
2019-08-07 04:00:00 22 8 Oeste 15 Oeste 0 975.2 -0.6 63
2019-08-07 03:00:00 23 6 Sudoeste 16 Sudoeste 0 975.5 -0.5 59
2019-08-07 02:00:00 23.7 3 Oeste 15 Oeste 0 975.7 0.1 55
2019-08-07 01:00:00 24.7 6 Oeste 20 Oeste 0 975.8 0.8 51
2019-08-07 00:00:00 25.9 11 Oeste 23 Oeste 0 976 1.6 45
2019-08-06 23:00:00 26.9 11 Oeste 23 Sudoeste 0 975.6 1.6 40
2019-08-06 22:00:00 28.2 9 Oeste 22 Oeste 0 975 0.7 33
2019-08-06 21:00:00 30.4 15 Oeste 30 Sudoeste 0 974.4 -0.2 28
2019-08-06 20:00:00 33.1 15 Oeste 29 Oeste 0 974 -1.1 24
2019-08-06 19:00:00 34.3 14 Sudoeste 29 Oeste 0 974.3 -1.3 22
2019-08-06 18:00:00 35 15 Sudoeste 27 Sudoeste 0 974.6 -1.6 21
2019-08-06 17:00:00 35.4 10 Sudoeste 28 Oeste 0 975.1 -1.7 21
2019-08-06 16:00:00 34.3 13 Sudoeste 30 Oeste 0 975.6 -1.9 22
2019-08-06 15:00:00 33.4 8 Sudoeste 22 Oeste 0 976.2 -1.5 25
2019-08-06 14:00:00 32.2 6 Sudoeste 22 Sudoeste 0 976.8 -0.8 28
2019-08-06 13:00:00 30.6 9 Sudoeste 25 Sudoeste 0 977.5 -0.1 32
2019-08-06 12:00:00 27.6 7 Sudoeste 18 Sudoeste 0 977.7 0.4 40
2019-08-06 11:00:00 26 8 Sudoeste 16 Sudoeste 0 977.6 0.7 44
2019-08-06 10:00:00 23.4 7 Sudoeste 11 Oeste 0 977.6 0.7 49
2019-08-06 09:00:00 21.3 5 Oeste 8 Oeste 0 977.3 0.4 57
2019-08-06 08:00:00 19 3 Oeste 10 Oeste 0 976.9 0.4 66
2019-08-06 07:00:00 19.3 5 Noroeste 11 Noroeste 0 976.9 0.2 61
2019-08-06 06:00:00 19.8 6 Oeste 18 Noroeste 0 976.9 0.1 57
2019-08-06 05:00:00 21.7 8 Noroeste 17 Noroeste 0 976.5 -0.5 51
2019-08-06 04:00:00 23.5 8 Norte 15 Noroeste 0 976.7 0 46
2019-08-06 03:00:00 24 0 Calma 9 Norte 0 976.8 0 48
2019-08-06 02:00:00 25.4 10 Noroeste 30 Noroeste 0 977 0.8 44
2019-08-06 01:00:00 26.5 18 Noroeste 30 Noroeste 0 976.7 1.1 41
2019-08-06 00:00:00 27.8 12 Noroeste 19 Noroeste 0 976.8 1.5 34
2019-08-05 23:00:00 28.8 6 Oeste 23 Sudoeste 0 976.2 1 27
2019-08-05 22:00:00 31.2 3 Oeste 10 Sur 0 975.6 0.1 18
2019-08-05 21:00:00 34.4 8 Sur 14 Sudoeste 0 975.3 -0.5 16
2019-08-05 20:00:00 36 8 Sur 14 Sudoeste 0 975.2 -1.1 12
2019-08-05 19:00:00 36.5 7 Sur 19 Sudoeste 0 975.5 -1.3 10
2019-08-05 18:00:00 36.3 10 Sur 18 Sur 0 975.8 -1.6 11
2019-08-05 17:00:00 36 10 Oeste 26 Oeste 0 976.3 -1.5 10
2019-08-05 16:00:00 35.2 6 Sur 22 Sudeste 0 976.8 -1.6 12
2019-08-05 15:00:00 34.4 7 Sudoeste 21 Sudoeste 0 977.4 -1.2 16
2019-08-05 14:00:00 32.5 8 Sudoeste 17 Sudoeste 0 977.8 -1.1 21
2019-08-05 13:00:00 30.1 6 Sur 17 Sudeste 0 978.4 -0.6 31
2019-08-05 12:00:00 28 8 Sudeste 17 Este 0 978.6 -0.2 40
2019-08-05 11:00:00 25.2 5 Sur 11 Sur 0 978.9 0.1 48
2019-08-05 10:00:00 21.8 3 Sudoeste 9 Oeste 0 979 0.7 58
2019-08-05 09:00:00 18.6 6 Oeste 9 Oeste 0 978.8 0.5 68
2019-08-05 08:00:00 17.2 3 Oeste 13 Noroeste 0 978.8 0.5 73
2019-08-05 07:00:00 17.5 11 Noroeste 17 Noroeste 0 978.3 0 72
2019-08-05 06:00:00 18.5 4 Oeste 9 Oeste 0 978.3 0 67
2019-08-05 05:00:00 19.6 5 Noroeste 13 Noroeste 0 978.3 -0.2 63
2019-08-05 04:00:00 19.9 9 Noroeste 14 Noroeste 0 978.3 -0.2 61
2019-08-05 03:00:00 21.2 5 Noroeste 12 Noroeste 0 978.3 -0.1 55
2019-08-05 02:00:00 22.3 5 Oeste 11 Oeste 0 978.5 0.4 49
2019-08-05 01:00:00 23 4 Oeste 19 Oeste 0 978.5 1.1 46
2019-08-05 00:00:00 24.3 8 Oeste 18 Oeste 0 978.4 1.6 39
2019-08-04 23:00:00 26.4 10 Sudoeste 17 Oeste 0 978.1 1.7 29
2019-08-04 22:00:00 28.8 14 Oeste 24 Oeste 0 977.4 1.2 26
2019-08-04 21:00:00 32.5 14 Oeste 30 Oeste 0 976.8 0.5 22
2019-08-04 20:00:00 35 19 Oeste 35 Oeste 0 976.4 -0.1 15
2019-08-04 19:00:00 36.1 20 Oeste 31 Sudoeste 0 976.2 -0.8 15
2019-08-04 18:00:00 37.2 13 Sudoeste 30 Sudoeste 0 976.3 -1.3 13
2019-08-04 17:00:00 36.8 12 Sudoeste 24 Sudoeste 0 976.5 -1.5 16
2019-08-04 16:00:00 35.9 13 Oeste 25 Oeste 0 977 -1.5 17
2019-08-04 15:00:00 34.9 12 Sudoeste 23 Sudoeste 0 977.6 -1 20
2019-08-04 14:00:00 32.8 5 Sudoeste 19 Sudeste 0 978 -0.6 28
2019-08-04 13:00:00 31.9 8 Sur 17 Sur 0 978.5 -0.2 29
2019-08-04 12:00:00 29.7 6 Sudoeste 18 Oeste 0 978.6 0.3 32
2019-08-04 11:00:00 27.3 6 Oeste 12 Oeste 0 978.6 0.9 41
2019-08-04 10:00:00 23.9 6 Oeste 13 Oeste 0 978.7 1.4 51
2019-08-04 09:00:00 21.5 8 Oeste 11 Oeste 0 978.3 1.2 58
2019-08-04 08:00:00 20.3 4 Oeste 12 Noroeste 0 977.7 0.6 59
2019-08-04 07:00:00 20.6 8 Noroeste 15 Noroeste 0 977.3 0.1 60
2019-08-04 06:00:00 21.8 10 Noroeste 15 Norte 0 977.1 -0.2 57
2019-08-04 05:00:00 22.1 2 Sudoeste 15 Norte 0 977.1 0 53
2019-08-04 04:00:00 23.5 9 Noroeste 24 Noroeste 0 977.2 0.3 50
2019-08-04 03:00:00 24.5 10 Noroeste 23 Noroeste 0 977.3 0.8 45
2019-08-04 02:00:00 25.3 13 Noroeste 26 Noroeste 0 977.1 1.1 43
2019-08-04 01:00:00 26.3 14 Noroeste 33 Noroeste 0 976.9 1.8 39
2019-08-04 00:00:00 27.5 14 Noroeste 27 Norte 0 976.5 1.6 39
2019-08-03 23:00:00 29.9 13 Norte 25 Norte 0 976 1.1 32
2019-08-03 22:00:00 32.6 6 Sur 9 Sur 0 975.1 -0.2 14
2019-08-03 21:00:00 35.5 5 Sur 11 Sudoeste 0 974.9 -0.7 14
2019-08-03 20:00:00 36.8 6 Sur 15 Oeste 0 974.9 -1.3 12
2019-08-03 19:00:00 37.4 9 Sudoeste 19 Sudeste 0 975.3 -1.5 11
2019-08-03 18:00:00 37.4 8 Sudoeste 21 Sudoeste 0 975.6 -1.7 12
2019-08-03 17:00:00 37 7 Sur 22 Sudoeste 0 976.2 -1.5 13
2019-08-03 16:00:00 35.3 8 Oeste 27 Oeste 0 976.8 -1.3 17
2019-08-03 15:00:00 34.5 12 Oeste 27 Sudoeste 0 977.3 -0.8 18
2019-08-03 14:00:00 33.1 8 Sudoeste 22 Sudoeste 0 977.7 -0.4 24
2019-08-03 13:00:00 31.8 5 Sur 17 Sudeste 0 978.1 0.1 29
2019-08-03 12:00:00 29.8 8 Este 17 Este 0 978.1 0.5 30
2019-08-03 11:00:00 27.1 5 Sudeste 13 Sudeste 0 978.1 1 43
2019-08-03 10:00:00 24 6 Oeste 10 Oeste 0 978 1.3 50
2019-08-03 09:00:00 22.7 0 Calma 6 Sudoeste 0 977.6 1.3 54
2019-08-03 08:00:00 19.7 2 Nordeste 10 Sudoeste 0 977.1 0.7 65
2019-08-03 07:00:00 20.4 6 Noroeste 13 Noroeste 0 976.7 0.1 62
2019-08-03 06:00:00 21.5 6 Noroeste 10 Noroeste 0 976.3 -0.3 60
2019-08-03 05:00:00 23.8 4 Norte 16 Norte 0 976.4 -0.3 52
2019-08-03 04:00:00 23.7 7 Norte 14 Noroeste 0 976.6 -0.3 54
2019-08-03 03:00:00 23.3 3 Oeste 9 Noroeste 0 976.6 -0.1 50
2019-08-03 02:00:00 25.4 6 Norte 15 Oeste 0 976.7 0.2 37
2019-08-03 01:00:00 25.8 4 Oeste 22 Norte 0 976.9 0.8 29
2019-08-03 00:00:00 26.9 13 Norte 21 Norte 0 976.7 0.7 26
2019-08-02 23:00:00 29.2 0 Calma 8 Sur 0 976.5 0.5 17
2019-08-02 22:00:00 31.6 4 Sudoeste 8 Sudoeste 0 976.1 -0.2 18
2019-08-02 21:00:00 35.2 3 Sur 10 Sudoeste 0 976 -0.6 14
2019-08-02 20:00:00 36.5 7 Sudoeste 11 Sur 0 976 -1.2 13
2019-08-02 19:00:00 36.9 5 Sudoeste 19 Sudeste 0 976.3 -1.6 12
2019-08-02 18:00:00 37.1 5 Sudoeste 17 Sur 0 976.6 -1.7 11
2019-08-02 17:00:00 36.3 6 Sur 23 Oeste 0 977.2 -1.5 10
2019-08-02 16:00:00 34.6 9 Oeste 21 Oeste 0 977.9 -1.2 14
2019-08-02 15:00:00 33.8 8 Sur 19 Sur 0 978.3 -0.9 20
2019-08-02 14:00:00 32.5 6 Sur 17 Sudoeste 0 978.7 -0.4 23
2019-08-02 13:00:00 30.1 4 Sudoeste 15 Oeste 0 979.1 0.3 26
2019-08-02 12:00:00 28.2 7 Sudoeste 15 Sudeste 0 979.2 0.7 29
2019-08-02 11:00:00 24.9 4 Sudoeste 13 Oeste 0 979.1 1.3 38
2019-08-02 10:00:00 21.7 4 Oeste 11 Oeste 0 978.8 1.2 47
2019-08-02 09:00:00 19 3 Oeste 8 Noroeste 0 978.5 1.1 55
2019-08-02 08:00:00 17.1 5 Noroeste 13 Noroeste 0 977.8 0.2 59
2019-08-02 07:00:00 17.8 9 Noroeste 16 Noroeste 0 977.6 0.1 55
2019-08-02 06:00:00 18.5 4 Oeste 10 Noroeste 0 977.4 -0.4 52
2019-08-02 05:00:00 19.5 7 Noroeste 13 Noroeste 0 977.6 -0.3 46
2019-08-02 04:00:00 20.4 8 Noroeste 19 Noroeste 0 977.5 -0.4 42
2019-08-02 03:00:00 21.9 13 Noroeste 27 Noroeste 0 977.8 0.2 43
2019-08-02 02:00:00 23 16 Noroeste 26 Noroeste 0 977.9 0.9 38
2019-08-02 01:00:00 23.1 5 Oeste 19 Oeste 0 977.9 1.9 35
2019-08-02 00:00:00 25.3 10 Noroeste 23 Noroeste 0 977.6 2.3 30
2019-08-01 23:00:00 26.5 9 Noroeste 27 Oeste 0 977 2.3 25
2019-08-01 22:00:00 29.5 11 Oeste 31 Oeste 0 976 1.3 20
2019-08-01 21:00:00 32.4 19 Oeste 29 Oeste 0 975.3 0.4 18
2019-08-01 20:00:00 35.7 9 Sudoeste 23 Sudoeste 0 974.7 -0.4 14
2019-08-01 19:00:00 36.3 12 Sudoeste 27 Sudoeste 0 974.7 -0.9 12
2019-08-01 18:00:00 37.1 11 Sudoeste 22 Sudoeste 0 974.9 -1.2 13
2019-08-01 17:00:00 36.1 8 Sudoeste 22 Sudoeste 0 975.1 -1.4 13
2019-08-01 16:00:00 34.8 9 Oeste 24 Sudoeste 0 975.6 -1.1 15
2019-08-01 15:00:00 34.1 9 Sudoeste 23 Oeste 0 976.1 -0.7 16
2019-08-01 14:00:00 32.3 6 Sudoeste 19 Sudeste 0 976.5 -0.2 23
2019-08-01 13:00:00 31.1 6 Sur 20 Este 0 976.7 0.3 25
2019-08-01 12:00:00 29.3 6 Sudeste 20 Este 0 976.8 0.7 29
2019-08-01 11:00:00 27.4 4 Sur 11 Sudeste 0 976.7 1.2 32
2019-08-01 10:00:00 24.5 5 Sudeste 11 Este 0 976.4 1.4 39
2019-08-01 09:00:00 21.6 6 Sudeste 10 Este 0 976.1 1.3 43
2019-08-01 08:00:00 19.7 5 Noroeste 13 Noroeste 0 975.5 0.8 46
2019-08-01 07:00:00 20.4 9 Norte 13 Norte 0 975 0.5 44
2019-08-01 06:00:00 20.1 5 Noroeste 15 Noroeste 0 974.8 0 46
2019-08-01 05:00:00 22.5 12 Norte 27 Norte 0 974.7 -0.2 36
2019-08-01 04:00:00 23.7 14 Norte 26 Norte 0 974.5 -0.5 31
2019-08-01 03:00:00 24.6 12 Norte 22 Norte 0 974.8 0 30
2019-08-01 02:00:00 24.5 12 Noroeste 19 Norte 0 974.9 0.4 32
2019-08-01 01:00:00 24.8 6 Noroeste 19 Norte 0 975 1 32
2019-08-01 00:00:00 27.1 12 Norte 22 Norte 0 974.8 1.1 28
2019-07-31 23:00:00 27.7 11 Norte 22 Noroeste 0 974.5 0.8 27
2019-07-31 22:00:00 29.1 16 Norte 34 Noroeste 0 974 0.2 26
2019-07-31 21:00:00 31.9 7 Noroeste 12 Noroeste 0 973.7 -0.4 13
2019-07-31 20:00:00 33.3 8 Noroeste 16 Sudoeste 0 973.7 -0.9 11
2019-07-31 19:00:00 34 7 Oeste 15 Oeste 0 973.8 -1.5 11
2019-07-31 18:00:00 34.9 7 Oeste 21 Sudeste 0 974.1 -1.9 9
2019-07-31 17:00:00 35.5 13 Sudeste 29 Sudeste 0 974.6 -1.9 8
2019-07-31 16:00:00 35.1 9 Este 28 Nordeste 0 975.3 -1.9 12
2019-07-31 15:00:00 33.6 13 Este 33 Nordeste 0 976 -1.5 20
2019-07-31 14:00:00 32.2 17 Este 36 Este 0 976.5 -1.2 25
2019-07-31 13:00:00 30.9 14 Este 37 Este 0 977.2 -0.5 28
2019-07-31 12:00:00 28.6 22 Este 42 Este 0 977.5 0.1 31
2019-07-31 11:00:00 27.5 12 Este 31 Nordeste 0 977.7 0.4 30
2019-07-31 10:00:00 23.6 11 Noroeste 20 Noroeste 0 977.7 0.3 29
2019-07-31 09:00:00 20.3 3 Noroeste 11 Oeste 0 977.4 0.1 33
2019-07-31 08:00:00 18 5 Este 12 Este 0 977.3 0.1 37
2019-07-31 07:00:00 18.1 4 Sudeste 17 Norte 0 977.4 0.1 38
2019-07-31 06:00:00 20 10 Norte 21 Norte 0 977.3 -0.3 33
2019-07-31 05:00:00 19.6 13 Norte 22 Noroeste 0 977.2 -0.6 35
2019-07-31 04:00:00 19.3 10 Noroeste 17 Noroeste 0 977.3 -0.5 34
2019-07-31 03:00:00 22 9 Norte 22 Norte 0 977.6 -0.2 29
2019-07-31 02:00:00 21.9 14 Norte 24 Norte 0 977.8 -0.1 28
2019-07-31 01:00:00 23 16 Norte 26 Noroeste 0 977.8 0.3 25
2019-07-31 00:00:00 24.3 12 Norte 21 Nordeste 0 977.8 0.8 21
2019-07-30 23:00:00 25.7 10 Norte 23 Norte 0 977.9 1.1 19
2019-07-30 22:00:00 27.3 9 Norte 37 Norte 0 977.5 0.4 17
2019-07-30 21:00:00 29.7 16 Norte 38 Noroeste 0 977 -0.5 14
2019-07-30 20:00:00 31.1 23 Noroeste 40 Noroeste 0 976.8 -1.4 12
2019-07-30 19:00:00 32.4 11 Nordeste 26 Norte 0 977.1 -1.7 12
2019-07-30 18:00:00 32.6 6 Sudoeste 22 Sudoeste 0 977.5 -1.9 15
2019-07-30 17:00:00 32.1 8 Sudoeste 24 Sudeste 0 978.2 -1.9 14
2019-07-30 16:00:00 31.2 11 Sur 30 Sudoeste 0 978.8 -2 15
2019-07-30 15:00:00 30 9 Sudeste 21 Este 0 979.4 -1.7 15
2019-07-30 14:00:00 27.9 7 Norte 33 Norte 0 980.1 -1.2 20
2019-07-30 13:00:00 25.7 10 Norte 30 Noroeste 0 980.8 -0.6 26
2019-07-30 12:00:00 23.4 15 Norte 36 Norte 0 981.1 0.2 29
2019-07-30 11:00:00 21.4 13 Norte 35 Nordeste 0 981.3 0.6 33
2019-07-30 10:00:00 19.5 15 Norte 44 Norte 0 981.4 1.1 40
2019-07-30 09:00:00 17.7 20 Norte 46 Nordeste 0 980.9 0.7 45
2019-07-30 08:00:00 16 16 Norte 48 Norte 0 980.7 0.8 54
2019-07-30 07:00:00 16.3 14 Norte 39 Norte 0 980.3 0.5 51
2019-07-30 06:00:00 16.6 17 Norte 42 Norte 0 980.2 0.4 50
2019-07-30 05:00:00 17.5 21 Norte 41 Norte 0 979.9 0.2 46
2019-07-30 04:00:00 18.1 21 Norte 39 Norte 0 979.8 0.4 45
2019-07-30 03:00:00 18.7 19 Norte 48 Norte 0 979.8 0.8 46
2019-07-30 02:00:00 19.1 20 Norte 38 Noroeste 0 979.7 1.1 45
2019-07-30 01:00:00 19.7 18 Noroeste 37 Norte 0 979.4 1.6 43
2019-07-30 00:00:00 21.1 20 Noroeste 42 Norte 0 979 1.8 38
2019-07-29 23:00:00 22.5 23 Noroeste 45 Norte 0 978.6 2 32
2019-07-29 22:00:00 24.3 20 Noroeste 41 Noroeste 0 977.8 1.5 28
2019-07-29 21:00:00 26.9 18 Noroeste 40 Noroeste 0 977.2 1 25
2019-07-29 20:00:00 29.3 21 Noroeste 37 Noroeste 0 976.6 0.3 19
2019-07-29 19:00:00 30.5 17 Noroeste 37 Norte 0 976.3 -0.1 16
2019-07-29 18:00:00 31 17 Noroeste 42 Noroeste 0 976.2 -0.3 18
2019-07-29 17:00:00 30.6 15 Noroeste 46 Noroeste 0 976.3 -0.4 17
2019-07-29 16:00:00 30.2 18 Noroeste 33 Noroeste 0 976.4 -0.6 28
2019-07-29 15:00:00 29.8 13 Noroeste 35 Noroeste 0 976.5 -0.5 30
2019-07-29 14:00:00 28.1 10 Oeste 28 Noroeste 0 976.7 0 33
2019-07-29 13:00:00 27 10 Noroeste 27 Oeste 0 977 0.3 34
2019-07-29 12:00:00 26.3 11 Oeste 28 Noroeste 0 977 0.6 36
2019-07-29 11:00:00 24.7 10 Oeste 20 Oeste 0 976.7 1 45
2019-07-29 10:00:00 22.1 8 Noroeste 15 Noroeste 0 976.7 1.6 49
2019-07-29 09:00:00 19.7 7 Oeste 16 Norte 0 976.4 1.6 55
2019-07-29 08:00:00 17.8 12 Noroeste 19 Noroeste 0 975.7 1 53
2019-07-29 07:00:00 16.9 6 Noroeste 12 Noroeste 0 975.1 0.5 55
2019-07-29 06:00:00 17.7 9 Noroeste 21 Noroeste 0 974.8 0.1 56
2019-07-29 05:00:00 18.3 4 Noroeste 12 Oeste 0 974.7 0 55
2019-07-29 04:00:00 19.6 5 Oeste 14 Oeste 0 974.6 0.2 49
2019-07-29 03:00:00 20.7 7 Oeste 15 Oeste 0 974.7 0.5 45
2019-07-29 02:00:00 22.1 12 Oeste 17 Sudoeste 0 974.7 0.9 42
2019-07-29 01:00:00 23.5 6 Oeste 19 Oeste 0 974.4 1.4 39
2019-07-29 00:00:00 25.2 9 Oeste 29 Oeste 0 974.2 1.5 37
2019-07-28 23:00:00 27.2 12 Oeste 28 Oeste 0 973.8 1.3 33
2019-07-28 22:00:00 29 3 Oeste 13 Sudoeste 0 973 0.3 25
2019-07-28 21:00:00 32.2 5 Sur 15 Sudoeste 0 972.7 -0.2 20
2019-07-28 20:00:00 33.5 7 Sudoeste 15 Sur 0 972.5 -1 19
2019-07-28 19:00:00 33.6 5 Sudoeste 18 Oeste 0 972.7 -1.5 19
2019-07-28 18:00:00 33.3 8 Oeste 23 Oeste 0 972.9 -1.8 20
2019-07-28 17:00:00 32.9 8 Sudoeste 24 Sudoeste 0 973.5 -1.6 17
2019-07-28 16:00:00 32.2 10 Sudoeste 23 Oeste 0 974.2 -1.5 18
2019-07-28 15:00:00 30.7 6 Sudoeste 20 Sudoeste 0 974.7 -1.2 26
2019-07-28 14:00:00 29.9 6 Sudoeste 25 Oeste 0 975.1 -0.9 27
2019-07-28 13:00:00 28.3 6 Este 27 Sudeste 0 975.7 -0.4 33
2019-07-28 12:00:00 26.9 13 Sudeste 22 Sudeste 0 975.9 0.3 38
2019-07-28 11:00:00 24.7 14 Este 23 Sudeste 0 976 0.7 45
2019-07-28 10:00:00 23.5 6 Este 14 Sudeste 0 976.1 1.1 45
2019-07-28 09:00:00 21.1 3 Sur 9 Norte 0 975.6 0.9 54
2019-07-28 08:00:00 18.4 5 Norte 14 Norte 0 975.3 0.4 62
2019-07-28 07:00:00 18.5 9 Norte 18 Norte 0 975 -0.1 64
2019-07-28 06:00:00 19.1 13 Norte 20 Norte 0 974.7 -0.3 64
2019-07-28 05:00:00 20 11 Norte 31 Norte 0 974.9 -0.1 56
2019-07-28 04:00:00 21 12 Norte 24 Norte 0 975.1 0 53
2019-07-28 03:00:00 20.9 12 Norte 19 Noroeste 0 975 0.2 55
2019-07-28 02:00:00 21.3 6 Norte 13 Noroeste 0 975 0.7 59
2019-07-28 01:00:00 22.1 10 Noroeste 21 Noroeste 0 975.1 1.5 57
2019-07-28 00:00:00 23.4 15 Noroeste 23 Noroeste 0 974.8 1.8 51
2019-07-27 23:00:00 24.1 7 Oeste 23 Oeste 0 974.3 1.7 44
2019-07-26 12:00:00 24.7 14 Noroeste 31 Noroeste 0 978.6 0.8 29
2019-07-26 11:00:00 22.9 16 Noroeste 37 Noroeste 0 978.3 0.9 37
2019-07-26 10:00:00 21 21 Noroeste 41 Noroeste 0 978.2 0.9 47
2019-07-26 09:00:00 18.4 24 Noroeste 45 Noroeste 0 977.8 0.8 58
2019-07-26 08:00:00 18.2 22 Noroeste 39 Norte 0 977.4 0.4 60
2019-07-26 07:00:00 18.9 23 Noroeste 37 Noroeste 0 977.3 0.1 57
2019-07-26 06:00:00 19.3 22 Noroeste 38 Noroeste 0 977 -0.5 63
2019-07-26 05:00:00 19.7 22 Noroeste 33 Noroeste 0 977 -0.8 70
2019-07-26 04:00:00 20.8 17 Noroeste 30 Noroeste 0 977.2 -0.4 68
2019-07-26 03:00:00 21.7 10 Noroeste 27 Noroeste 0 977.5 0.1 67
2019-07-26 02:00:00 22.8 9 Oeste 29 Oeste 0 977.8 1 60
2019-07-26 01:00:00 23.8 13 Oeste 28 Oeste 0 977.6 1.1 57
2019-07-26 00:00:00 24.1 17 Oeste 27 Oeste 0 977.4 1.3 57
2019-07-25 23:00:00 25.8 12 Oeste 35 Oeste 0 976.8 1.1 50
2019-07-25 22:00:00 27.1 13 Oeste 38 Oeste 0 976.5 0.7 46
2019-07-25 21:00:00 29.3 15 Oeste 42 Oeste 0 976.1 0 36
2019-07-25 20:00:00 32 15 Sudoeste 25 Sudoeste 0 975.7 -0.8 26
2019-07-25 19:00:00 33.9 18 Sudoeste 32 Oeste 0 975.8 -1.3 22
2019-07-25 18:00:00 35 16 Oeste 33 Oeste 0 976.1 -1.3 17
2019-07-25 17:00:00 35.2 17 Sudoeste 34 Oeste 0 976.5 -1.3 18
2019-07-25 16:00:00 34.3 13 Sudoeste 36 Oeste 0 977.1 -1 22
2019-07-25 15:00:00 33.5 17 Sudoeste 33 Oeste 0 977.4 -0.7 26
2019-07-25 14:00:00 32.2 12 Sudoeste 27 Oeste 0 977.8 -0.3 26
2019-07-25 13:00:00 30.8 8 Sur 21 Sur 0 978.1 0.1 33
2019-07-25 12:00:00 28.9 6 Sudoeste 14 Sur 0 978.1 0.2 37
2019-07-25 11:00:00 26.7 6 Sur 12 Sur 0 978.1 0.9 44
2019-07-25 10:00:00 24.4 5 Oeste 12 Oeste 0 978 1.2 49
2019-07-25 09:00:00 21.8 5 Oeste 10 Oeste 0 977.9 1.5 53
2019-07-25 08:00:00 20.5 5 Oeste 9 Oeste 0 977.2 0.6 53
2019-07-25 07:00:00 20.9 3 Oeste 8 Oeste 0 976.8 0.2 51
2019-07-25 06:00:00 22.1 3 Oeste 6 Oeste 0 976.4 -0.1 44
2019-07-25 05:00:00 23.2 3 Oeste 10 Sudoeste 0 976.6 0 40
2019-07-25 04:00:00 24.2 3 Noroeste 8 Noroeste 0 976.6 0.3 38
2019-07-25 03:00:00 24.9 2 Sudoeste 9 Oeste 0 976.5 0.3 35
2019-07-25 02:00:00 25.1 6 Oeste 17 Oeste 0 976.6 1 37
2019-07-25 01:00:00 27.1 9 Oeste 18 Oeste 0 976.3 1.3 31
2019-07-25 00:00:00 28.2 6 Noroeste 26 Noroeste 0 976.2 1.6 30
2019-07-24 23:00:00 30.3 9 Noroeste 30 Oeste 0 975.6 1.2 28
2019-07-24 22:00:00 32.2 15 Oeste 35 Oeste 0 975 0.5 21
2019-07-24 21:00:00 35.2 22 Oeste 38 Oeste 0 974.6 -0.4 18
2019-07-24 20:00:00 38.1 13 Sudoeste 33 Sudoeste 0 974.4 -1.4 14
2019-07-24 19:00:00 39 16 Sudoeste 30 Oeste 0 974.5 -1.8 13
2019-07-24 18:00:00 39.5 12 Sudoeste 28 Sur 0 975 -1.9 14
2019-07-24 17:00:00 38.8 10 Sudoeste 31 Oeste 0 975.8 -1.8 16
2019-07-24 16:00:00 37.8 9 Oeste 30 Oeste 0 976.3 -1.7 18
2019-07-24 15:00:00 36.9 7 Sudoeste 20 Oeste 0 976.9 -1.5 19
2019-07-24 14:00:00 35.4 7 Sudeste 20 Oeste 0 977.6 -1 22
2019-07-24 13:00:00 34.2 7 Oeste 16 Sudeste 0 978 -0.5 25
2019-07-24 12:00:00 32.7 8 Sudeste 17 Sudeste 0 978.4 0.1 28
2019-07-24 11:00:00 30.5 9 Este 15 Este 0 978.6 0.6 31
2019-07-24 10:00:00 28.6 7 Este 12 Este 0 978.5 0.8 37
2019-07-24 09:00:00 25.9 7 Este 11 Este 0 978.3 0.7 45
2019-07-24 08:00:00 22.7 3 Nordeste 9 Noroeste 0 978 0.3 52
2019-07-24 07:00:00 23.2 3 Sudoeste 9 Este 0 977.7 -0.3 47
2019-07-24 06:00:00 24.9 8 Este 13 Este 0 977.6 -1 42
2019-07-24 05:00:00 24.8 3 Este 18 Este 0 977.7 -1.1 43
2019-07-24 04:00:00 25.6 11 Este 18 Este 0 978 -0.7 42
2019-07-24 03:00:00 25.7 8 Este 19 Este 0 978.6 0 50
2019-07-24 02:00:00 26.6 0 Calma 14 Noroeste 0 978.8 1.2 48
2019-07-24 01:00:00 27.9 9 Noroeste 15 Noroeste 0 978.7 2 44
2019-07-24 00:00:00 28.6 3 Norte 14 Oeste 0 978.6 2.5 42